Terminal Aerodrome Forecast
Issued by NWS Corpus Christi, TX

Home | Current Version | Previous Version | Text Only | Print | Product List | Glossary On
Versions: 1 2 3 4 5 6 7 8 9 10 11 12 13
000
FTUS44 KCRP 292330
TAFVCT
TAF
KVCT 292330Z 3000/3024 15010KT P6SM FEW035 SCT250
     FM300400 13007KT P6SM FEW015
     FM300800 VRB03KT 3SM BR SCT008
     FM301000 VRB03KT 1SM BR VV010
      TEMPO 3010/3013 1/2SM FG VV005
     FM301400 VRB04KT P6SM SCT025
     FM301800 15008KT P6SM SCT035 BKN060=

USA.gov is the U.S. government's official web portal to all federal, state and local government web resources and services.